sensor_id;sensor_type;location;lat;lon;timestamp;P1;durP1;ratioP1;P2;durP2;ratioP2
41572;SDS011;27286;47.870;19.006;2023-03-01T00:01:03;12.13;;;6.03;;
41572;SDS011;27286;47.870;19.006;2023-03-01T00:03:31;10.23;;;6.70;;
41572;SDS011;27286;47.870;19.006;2023-03-01T00:05:57;9.60;;;5.97;;
41572;SDS011;27286;47.870;19.006;2023-03-01T00:08:22;9.85;;;6.38;;
41572;SDS011;27286;47.870;19.006;2023-03-01T00:10:48;9.48;;;5.55;;
41572;SDS011;27286;47.870;19.006;2023-03-01T00:13:13;10.30;;;5.53;;
41572;SDS011;27286;47.870;19.006;2023-03-01T00:15:39;10.13;;;5.25;;
41572;SDS011;27286;47.870;19.006;2023-03-01T00:18:06;8.43;;;5.43;;
41572;SDS011;27286;47.870;19.006;2023-03-01T00:20:32;8.75;;;5.47;;
41572;SDS011;27286;47.870;19.006;2023-03-01T00:22:57;11.00;;;6.80;;
41572;SDS011;27286;47.870;19.006;2023-03-01T00:25:23;15.77;;;9.38;;
41572;SDS011;27286;47.870;19.006;2023-03-01T00:27:48;17.73;;;12.00;;
41572;SDS011;27286;47.870;19.006;2023-03-01T00:30:14;17.55;;;11.77;;
41572;SDS011;27286;47.870;19.006;2023-03-01T00:32:40;20.25;;;12.55;;
41572;SDS011;27286;47.870;19.006;2023-03-01T00:35:05;18.17;;;12.30;;
41572;SDS011;27286;47.870;19.006;2023-03-01T00:37:31;21.63;;;13.32;;
41572;SDS011;27286;47.870;19.006;2023-03-01T00:39:56;22.05;;;11.23;;
41572;SDS011;27286;47.870;19.006;2023-03-01T00:42:22;18.45;;;13.32;;
41572;SDS011;27286;47.870;19.006;2023-03-01T00:44:48;17.52;;;13.00;;
41572;SDS011;27286;47.870;19.006;2023-03-01T00:47:13;23.23;;;14.32;;
41572;SDS011;27286;47.870;19.006;2023-03-01T00:49:39;24.10;;;12.82;;
41572;SDS011;27286;47.870;19.006;2023-03-01T00:52:04;21.25;;;12.73;;
41572;SDS011;27286;47.870;19.006;2023-03-01T00:54:30;18.65;;;11.75;;
41572;SDS011;27286;47.870;19.006;2023-03-01T00:56:56;18.55;;;12.25;;
41572;SDS011;27286;47.870;19.006;2023-03-01T00:59:21;19.42;;;12.93;;
41572;SDS011;27286;47.870;19.006;2023-03-01T01:01:46;17.80;;;12.35;;
41572;SDS011;27286;47.870;19.006;2023-03-01T01:04:12;19.88;;;13.38;;
41572;SDS011;27286;47.870;19.006;2023-03-01T01:09:07;18.25;;;12.93;;
41572;SDS011;27286;47.870;19.006;2023-03-01T01:11:34;21.88;;;13.45;;
41572;SDS011;27286;47.870;19.006;2023-03-01T01:14:01;20.95;;;13.30;;
41572;SDS011;27286;47.870;19.006;2023-03-01T01:16:28;18.80;;;12.35;;
41572;SDS011;27286;47.870;19.006;2023-03-01T01:18:54;20.30;;;13.60;;
41572;SDS011;27286;47.870;19.006;2023-03-01T01:21:22;20.90;;;13.82;;
41572;SDS011;27286;47.870;19.006;2023-03-01T01:23:49;20.98;;;12.93;;
41572;SDS011;27286;47.870;19.006;2023-03-01T01:28:45;18.08;;;13.32;;
41572;SDS011;27286;47.870;19.006;2023-03-01T01:31:11;19.27;;;13.23;;
41572;SDS011;27286;47.870;19.006;2023-03-01T01:33:37;25.75;;;13.82;;
41572;SDS011;27286;47.870;19.006;2023-03-01T01:36:03;21.55;;;13.80;;
41572;SDS011;27286;47.870;19.006;2023-03-01T01:38:29;21.42;;;13.70;;
41572;SDS011;27286;47.870;19.006;2023-03-01T01:40:55;26.30;;;14.77;;
41572;SDS011;27286;47.870;19.006;2023-03-01T01:45:48;19.30;;;13.93;;
41572;SDS011;27286;47.870;19.006;2023-03-01T01:48:15;19.27;;;13.70;;
41572;SDS011;27286;47.870;19.006;2023-03-01T01:50:50;18.17;;;14.15;;
41572;SDS011;27286;47.870;19.006;2023-03-01T01:53:21;19.65;;;13.68;;
41572;SDS011;27286;47.870;19.006;2023-03-01T01:55:51;20.73;;;14.35;;
41572;SDS011;27286;47.870;19.006;2023-03-01T01:58:22;21.02;;;14.10;;
41572;SDS011;27286;47.870;19.006;2023-03-01T02:00:50;22.73;;;13.82;;
41572;SDS011;27286;47.870;19.006;2023-03-01T02:03:19;21.10;;;14.55;;
41572;SDS011;27286;47.870;19.006;2023-03-01T02:05:54;18.55;;;13.55;;
41572;SDS011;27286;47.870;19.006;2023-03-01T02:08:23;19.92;;;13.18;;
41572;SDS011;27286;47.870;19.006;2023-03-01T02:10:51;19.30;;;13.88;;
41572;SDS011;27286;47.870;19.006;2023-03-01T02:13:19;20.73;;;14.30;;
41572;SDS011;27286;47.870;19.006;2023-03-01T02:15:45;19.33;;;13.63;;
41572;SDS011;27286;47.870;19.006;2023-03-01T02:18:12;22.52;;;14.68;;
41572;SDS011;27286;47.870;19.006;2023-03-01T02:20:44;20.25;;;13.68;;
41572;SDS011;27286;47.870;19.006;2023-03-01T02:23:17;20.52;;;14.35;;
41572;SDS011;27286;47.870;19.006;2023-03-01T02:30:40;19.30;;;13.77;;
41572;SDS011;27286;47.870;19.006;2023-03-01T02:33:27;31.20;;;15.13;;
41572;SDS011;27286;47.870;19.006;2023-03-01T02:35:57;19.85;;;14.07;;
41572;SDS011;27286;47.870;19.006;2023-03-01T02:38:25;20.40;;;13.43;;
41572;SDS011;27286;47.870;19.006;2023-03-01T02:40:51;19.52;;;12.98;;
41572;SDS011;27286;47.870;19.006;2023-03-01T02:43:17;23.92;;;13.45;;
41572;SDS011;27286;47.870;19.006;2023-03-01T02:45:49;19.50;;;13.13;;
41572;SDS011;27286;47.870;19.006;2023-03-01T02:48:16;24.85;;;12.38;;
41572;SDS011;27286;47.870;19.006;2023-03-01T02:56:06;16.05;;;11.38;;
41572;SDS011;27286;47.870;19.006;2023-03-01T02:58:38;18.80;;;11.30;;
41572;SDS011;27286;47.870;19.006;2023-03-01T03:01:10;17.23;;;12.00;;
41572;SDS011;27286;47.870;19.006;2023-03-01T03:03:39;18.17;;;12.30;;
41572;SDS011;27286;47.870;19.006;2023-03-01T03:06:06;16.33;;;11.43;;
41572;SDS011;27286;47.870;19.006;2023-03-01T03:08:31;21.17;;;11.30;;
41572;SDS011;27286;47.870;19.006;2023-03-01T03:10:57;18.73;;;12.45;;
41572;SDS011;27286;47.870;19.006;2023-03-01T03:13:22;21.60;;;12.65;;
41572;SDS011;27286;47.870;19.006;2023-03-01T03:15:53;16.92;;;11.52;;
41572;SDS011;27286;47.870;19.006;2023-03-01T03:18:19;16.65;;;11.48;;
41572;SDS011;27286;47.870;19.006;2023-03-01T03:20:45;18.42;;;11.75;;
41572;SDS011;27286;47.870;19.006;2023-03-01T03:23:10;16.48;;;11.80;;
41572;SDS011;27286;47.870;19.006;2023-03-01T03:25:37;36.78;;;13.48;;
41572;SDS011;27286;47.870;19.006;2023-03-01T03:28:04;18.40;;;12.05;;
41572;SDS011;27286;47.870;19.006;2023-03-01T03:30:35;18.83;;;12.05;;
41572;SDS011;27286;47.870;19.006;2023-03-01T03:33:01;19.60;;;11.25;;
41572;SDS011;27286;47.870;19.006;2023-03-01T03:35:32;18.13;;;12.32;;
41572;SDS011;27286;47.870;19.006;2023-03-01T03:38:12;15.43;;;10.82;;
41572;SDS011;27286;47.870;19.006;2023-03-01T03:40:45;16.10;;;11.38;;
41572;SDS011;27286;47.870;19.006;2023-03-01T03:43:13;16.92;;;10.57;;
41572;SDS011;27286;47.870;19.006;2023-03-01T03:45:39;15.52;;;10.27;;
41572;SDS011;27286;47.870;19.006;2023-03-01T03:48:05;15.75;;;10.88;;
41572;SDS011;27286;47.870;19.006;2023-03-01T03:50:34;16.17;;;9.88;;
41572;SDS011;27286;47.870;19.006;2023-03-01T03:53:00;16.35;;;11.18;;
41572;SDS011;27286;47.870;19.006;2023-03-01T03:55:27;16.42;;;9.50;;
41572;SDS011;27286;47.870;19.006;2023-03-01T03:57:57;17.45;;;9.57;;
41572;SDS011;27286;47.870;19.006;2023-03-01T04:00:26;16.27;;;10.57;;
41572;SDS011;27286;47.870;19.006;2023-03-01T04:02:53;18.05;;;9.73;;
41572;SDS011;27286;47.870;19.006;2023-03-01T04:05:21;14.18;;;10.07;;
41572;SDS011;27286;47.870;19.006;2023-03-01T04:07:47;14.48;;;9.32;;
41572;SDS011;27286;47.870;19.006;2023-03-01T04:10:16;22.00;;;10.35;;
41572;SDS011;27286;47.870;19.006;2023-03-01T04:12:42;14.35;;;9.82;;
41572;SDS011;27286;47.870;19.006;2023-03-01T04:15:08;17.00;;;10.18;;
41572;SDS011;27286;47.870;19.006;2023-03-01T04:17:40;15.63;;;9.73;;
41572;SDS011;27286;47.870;19.006;2023-03-01T04:20:07;17.38;;;9.93;;
41572;SDS011;27286;47.870;19.006;2023-03-01T04:22:38;15.20;;;9.25;;
41572;SDS011;27286;47.870;19.006;2023-03-01T04:25:05;16.65;;;9.40;;
41572;SDS011;27286;47.870;19.006;2023-03-01T04:27:34;13.48;;;9.00;;
41572;SDS011;27286;47.870;19.006;2023-03-01T04:30:00;14.70;;;9.85;;
41572;SDS011;27286;47.870;19.006;2023-03-01T04:32:27;13.32;;;8.85;;
41572;SDS011;27286;47.870;19.006;2023-03-01T04:34:52;14.52;;;9.02;;
41572;SDS011;27286;47.870;19.006;2023-03-01T04:37:18;12.82;;;8.65;;
41572;SDS011;27286;47.870;19.006;2023-03-01T04:39:43;13.88;;;8.73;;
41572;SDS011;27286;47.870;19.006;2023-03-01T04:42:10;13.02;;;8.40;;
41572;SDS011;27286;47.870;19.006;2023-03-01T04:44:36;13.05;;;8.32;;
41572;SDS011;27286;47.870;19.006;2023-03-01T04:47:01;14.02;;;8.40;;
41572;SDS011;27286;47.870;19.006;2023-03-01T04:49:27;12.18;;;8.63;;
41572;SDS011;27286;47.870;19.006;2023-03-01T04:51:52;13.98;;;8.60;;
41572;SDS011;27286;47.870;19.006;2023-03-01T04:54:18;13.25;;;8.10;;
41572;SDS011;27286;47.870;19.006;2023-03-01T04:56:43;10.13;;;7.20;;
41572;SDS011;27286;47.870;19.006;2023-03-01T04:59:08;12.90;;;7.78;;
41572;SDS011;27286;47.870;19.006;2023-03-01T05:01:35;12.48;;;8.25;;
41572;SDS011;27286;47.870;19.006;2023-03-01T05:04:00;11.40;;;7.15;;
41572;SDS011;27286;47.870;19.006;2023-03-01T05:06:28;19.60;;;7.47;;
41572;SDS011;27286;47.870;19.006;2023-03-01T05:08:53;9.95;;;7.05;;
41572;SDS011;27286;47.870;19.006;2023-03-01T05:11:19;11.95;;;7.25;;
41572;SDS011;27286;47.870;19.006;2023-03-01T05:13:44;13.50;;;7.15;;
41572;SDS011;27286;47.870;19.006;2023-03-01T05:16:10;9.73;;;7.05;;
41572;SDS011;27286;47.870;19.006;2023-03-01T05:18:39;11.82;;;6.78;;
41572;SDS011;27286;47.870;19.006;2023-03-01T05:21:06;13.32;;;7.35;;
41572;SDS011;27286;47.870;19.006;2023-03-01T05:23:34;10.38;;;6.75;;
41572;SDS011;27286;47.870;19.006;2023-03-01T05:26:01;11.38;;;6.88;;
41572;SDS011;27286;47.870;19.006;2023-03-01T05:28:29;11.25;;;6.95;;
41572;SDS011;27286;47.870;19.006;2023-03-01T05:30:54;10.00;;;6.30;;
41572;SDS011;27286;47.870;19.006;2023-03-01T05:33:20;10.77;;;7.03;;
41572;SDS011;27286;47.870;19.006;2023-03-01T05:35:47;9.63;;;6.60;;
41572;SDS011;27286;47.870;19.006;2023-03-01T05:38:14;13.35;;;6.82;;
41572;SDS011;27286;47.870;19.006;2023-03-01T05:40:40;11.38;;;6.35;;
41572;SDS011;27286;47.870;19.006;2023-03-01T05:43:07;11.88;;;7.53;;
41572;SDS011;27286;47.870;19.006;2023-03-01T05:45:33;11.18;;;7.75;;
41572;SDS011;27286;47.870;19.006;2023-03-01T05:48:01;11.43;;;7.55;;
41572;SDS011;27286;47.870;19.006;2023-03-01T05:50:27;13.35;;;8.50;;
41572;SDS011;27286;47.870;19.006;2023-03-01T05:53:04;24.55;;;8.52;;
41572;SDS011;27286;47.870;19.006;2023-03-01T05:55:33;13.52;;;8.50;;
41572;SDS011;27286;47.870;19.006;2023-03-01T05:58:00;16.67;;;9.75;;
41572;SDS011;27286;47.870;19.006;2023-03-01T06:00:27;12.98;;;8.23;;
41572;SDS011;27286;47.870;19.006;2023-03-01T06:02:54;18.88;;;9.43;;
41572;SDS011;27286;47.870;19.006;2023-03-01T06:05:19;19.10;;;10.45;;
41572;SDS011;27286;47.870;19.006;2023-03-01T06:07:46;16.08;;;8.88;;
41572;SDS011;27286;47.870;19.006;2023-03-01T06:10:11;12.30;;;8.18;;
41572;SDS011;27286;47.870;19.006;2023-03-01T06:12:38;14.10;;;7.60;;
41572;SDS011;27286;47.870;19.006;2023-03-01T06:15:05;12.85;;;7.63;;
41572;SDS011;27286;47.870;19.006;2023-03-01T06:17:33;10.68;;;6.88;;
41572;SDS011;27286;47.870;19.006;2023-03-01T06:20:06;12.70;;;8.32;;
41572;SDS011;27286;47.870;19.006;2023-03-01T06:22:44;12.43;;;7.90;;
41572;SDS011;27286;47.870;19.006;2023-03-01T06:25:12;15.90;;;7.85;;
41572;SDS011;27286;47.870;19.006;2023-03-01T06:27:39;13.30;;;7.68;;
41572;SDS011;27286;47.870;19.006;2023-03-01T06:30:05;14.18;;;8.30;;
41572;SDS011;27286;47.870;19.006;2023-03-01T06:32:32;13.50;;;8.15;;
41572;SDS011;27286;47.870;19.006;2023-03-01T06:34:57;12.13;;;8.00;;
41572;SDS011;27286;47.870;19.006;2023-03-01T06:37:23;14.02;;;8.55;;
41572;SDS011;27286;47.870;19.006;2023-03-01T06:39:49;13.05;;;7.50;;
41572;SDS011;27286;47.870;19.006;2023-03-01T06:42:15;12.40;;;8.15;;
41572;SDS011;27286;47.870;19.006;2023-03-01T06:44:40;12.52;;;8.50;;
41572;SDS011;27286;47.870;19.006;2023-03-01T06:47:06;14.57;;;8.88;;
41572;SDS011;27286;47.870;19.006;2023-03-01T06:49:31;12.90;;;8.57;;
41572;SDS011;27286;47.870;19.006;2023-03-01T06:51:57;15.27;;;8.55;;
41572;SDS011;27286;47.870;19.006;2023-03-01T06:54:22;14.07;;;8.48;;
41572;SDS011;27286;47.870;19.006;2023-03-01T06:56:48;13.20;;;8.55;;
41572;SDS011;27286;47.870;19.006;2023-03-01T06:59:15;13.68;;;8.82;;
41572;SDS011;27286;47.870;19.006;2023-03-01T07:01:41;12.98;;;8.15;;
41572;SDS011;27286;47.870;19.006;2023-03-01T07:04:06;14.20;;;9.05;;
41572;SDS011;27286;47.870;19.006;2023-03-01T07:06:32;12.30;;;7.95;;
41572;SDS011;27286;47.870;19.006;2023-03-01T07:08:57;11.13;;;7.80;;
41572;SDS011;27286;47.870;19.006;2023-03-01T07:11:23;15.35;;;9.05;;
41572;SDS011;27286;47.870;19.006;2023-03-01T07:13:48;12.20;;;7.47;;
41572;SDS011;27286;47.870;19.006;2023-03-01T07:16:14;11.75;;;7.65;;
41572;SDS011;27286;47.870;19.006;2023-03-01T07:18:40;16.02;;;8.57;;
41572;SDS011;27286;47.870;19.006;2023-03-01T07:21:06;18.85;;;8.80;;
41572;SDS011;27286;47.870;19.006;2023-03-01T07:23:33;12.93;;;8.88;;
41572;SDS011;27286;47.870;19.006;2023-03-01T07:25:59;12.48;;;8.27;;
41572;SDS011;27286;47.870;19.006;2023-03-01T07:28:25;16.75;;;8.27;;
41572;SDS011;27286;47.870;19.006;2023-03-01T07:30:51;14.18;;;8.73;;
41572;SDS011;27286;47.870;19.006;2023-03-01T07:33:17;14.15;;;8.70;;
41572;SDS011;27286;47.870;19.006;2023-03-01T07:35:42;16.85;;;8.90;;
41572;SDS011;27286;47.870;19.006;2023-03-01T07:38:08;12.20;;;8.02;;
41572;SDS011;27286;47.870;19.006;2023-03-01T07:40:33;11.90;;;7.30;;
41572;SDS011;27286;47.870;19.006;2023-03-01T07:42:59;16.20;;;7.28;;
41572;SDS011;27286;47.870;19.006;2023-03-01T07:45:26;11.43;;;7.75;;
41572;SDS011;27286;47.870;19.006;2023-03-01T07:47:52;10.10;;;7.55;;
41572;SDS011;27286;47.870;19.006;2023-03-01T07:50:18;13.15;;;8.40;;
41572;SDS011;27286;47.870;19.006;2023-03-01T07:52:47;16.63;;;8.50;;
41572;SDS011;27286;47.870;19.006;2023-03-01T07:55:14;14.88;;;8.80;;
41572;SDS011;27286;47.870;19.006;2023-03-01T07:57:41;11.80;;;7.65;;
41572;SDS011;27286;47.870;19.006;2023-03-01T08:00:07;10.40;;;7.20;;
41572;SDS011;27286;47.870;19.006;2023-03-01T08:02:34;10.48;;;7.25;;
41572;SDS011;27286;47.870;19.006;2023-03-01T08:05:00;12.93;;;8.20;;
41572;SDS011;27286;47.870;19.006;2023-03-01T08:07:26;11.98;;;7.65;;
41572;SDS011;27286;47.870;19.006;2023-03-01T08:09:51;27.10;;;9.85;;
41572;SDS011;27286;47.870;19.006;2023-03-01T08:12:16;15.48;;;7.88;;
41572;SDS011;27286;47.870;19.006;2023-03-01T08:14:42;11.38;;;7.40;;
41572;SDS011;27286;47.870;19.006;2023-03-01T08:17:08;15.65;;;7.45;;
41572;SDS011;27286;47.870;19.006;2023-03-01T08:19:33;13.38;;;8.07;;
41572;SDS011;27286;47.870;19.006;2023-03-01T08:22:00;12.32;;;6.68;;
41572;SDS011;27286;47.870;19.006;2023-03-01T08:24:27;9.70;;;6.93;;
41572;SDS011;27286;47.870;19.006;2023-03-01T08:26:53;10.13;;;7.22;;
41572;SDS011;27286;47.870;19.006;2023-03-01T08:29:19;10.13;;;6.82;;
41572;SDS011;27286;47.870;19.006;2023-03-01T08:31:44;11.23;;;7.00;;
41572;SDS011;27286;47.870;19.006;2023-03-01T08:34:11;12.27;;;7.07;;
41572;SDS011;27286;47.870;19.006;2023-03-01T08:36:40;11.02;;;6.78;;
41572;SDS011;27286;47.870;19.006;2023-03-01T08:39:10;10.02;;;7.30;;
41572;SDS011;27286;47.870;19.006;2023-03-01T08:41:37;12.00;;;6.47;;
41572;SDS011;27286;47.870;19.006;2023-03-01T08:44:04;8.65;;;6.10;;
41572;SDS011;27286;47.870;19.006;2023-03-01T08:46:34;8.45;;;5.35;;
41572;SDS011;27286;47.870;19.006;2023-03-01T08:49:04;7.10;;;5.05;;
41572;SDS011;27286;47.870;19.006;2023-03-01T08:51:36;12.73;;;5.75;;
41572;SDS011;27286;47.870;19.006;2023-03-01T08:54:23;8.25;;;4.65;;
41572;SDS011;27286;47.870;19.006;2023-03-01T08:56:48;7.20;;;4.60;;
41572;SDS011;27286;47.870;19.006;2023-03-01T08:59:14;15.82;;;5.35;;
41572;SDS011;27286;47.870;19.006;2023-03-01T09:01:40;9.07;;;5.20;;
41572;SDS011;27286;47.870;19.006;2023-03-01T09:04:08;8.98;;;5.38;;
41572;SDS011;27286;47.870;19.006;2023-03-01T09:06:34;8.30;;;4.50;;
41572;SDS011;27286;47.870;19.006;2023-03-01T09:09:00;9.02;;;4.60;;
41572;SDS011;27286;47.870;19.006;2023-03-01T09:11:27;6.82;;;4.30;;
41572;SDS011;27286;47.870;19.006;2023-03-01T09:13:53;10.63;;;5.22;;
41572;SDS011;27286;47.870;19.006;2023-03-01T09:16:19;7.30;;;5.13;;
41572;SDS011;27286;47.870;19.006;2023-03-01T09:18:48;8.98;;;5.95;;
41572;SDS011;27286;47.870;19.006;2023-03-01T09:21:16;8.35;;;5.20;;
41572;SDS011;27286;47.870;19.006;2023-03-01T09:23:43;6.15;;;4.60;;
41572;SDS011;27286;47.870;19.006;2023-03-01T09:26:11;9.05;;;5.30;;
41572;SDS011;27286;47.870;19.006;2023-03-01T09:28:39;7.95;;;5.05;;
41572;SDS011;27286;47.870;19.006;2023-03-01T09:31:09;8.30;;;5.35;;
41572;SDS011;27286;47.870;19.006;2023-03-01T09:33:34;6.65;;;5.13;;
41572;SDS011;27286;47.870;19.006;2023-03-01T09:36:00;6.93;;;4.78;;
41572;SDS011;27286;47.870;19.006;2023-03-01T09:38:30;7.95;;;5.20;;
41572;SDS011;27286;47.870;19.006;2023-03-01T09:40:56;6.90;;;5.25;;
41572;SDS011;27286;47.870;19.006;2023-03-01T09:43:39;8.13;;;5.28;;
41572;SDS011;27286;47.870;19.006;2023-03-01T09:46:11;6.20;;;4.47;;
41572;SDS011;27286;47.870;19.006;2023-03-01T09:48:42;6.82;;;4.72;;
41572;SDS011;27286;47.870;19.006;2023-03-01T09:51:18;7.75;;;4.95;;
41572;SDS011;27286;47.870;19.006;2023-03-01T09:53:48;5.57;;;4.10;;
41572;SDS011;27286;47.870;19.006;2023-03-01T10:01:27;4.78;;;4.00;;
41572;SDS011;27286;47.870;19.006;2023-03-01T10:09:38;4.03;;;3.25;;
41572;SDS011;27286;47.870;19.006;2023-03-01T10:12:15;4.90;;;3.13;;
41572;SDS011;27286;47.870;19.006;2023-03-01T10:17:37;9.10;;;4.07;;
41572;SDS011;27286;47.870;19.006;2023-03-01T10:20:25;9.98;;;4.95;;
41572;SDS011;27286;47.870;19.006;2023-03-01T10:22:55;8.10;;;4.70;;
41572;SDS011;27286;47.870;19.006;2023-03-01T10:26:04;8.13;;;3.85;;
41572;SDS011;27286;47.870;19.006;2023-03-01T10:31:30;6.80;;;4.47;;
41572;SDS011;27286;47.870;19.006;2023-03-01T10:34:10;6.90;;;4.82;;
41572;SDS011;27286;47.870;19.006;2023-03-01T10:36:41;4.68;;;3.28;;
41572;SDS011;27286;47.870;19.006;2023-03-01T10:39:22;7.75;;;3.70;;
41572;SDS011;27286;47.870;19.006;2023-03-01T10:44:45;6.07;;;4.80;;
41572;SDS011;27286;47.870;19.006;2023-03-01T10:47:22;6.90;;;4.40;;
41572;SDS011;27286;47.870;19.006;2023-03-01T10:50:18;5.20;;;4.45;;
41572;SDS011;27286;47.870;19.006;2023-03-01T10:52:55;5.65;;;4.45;;
41572;SDS011;27286;47.870;19.006;2023-03-01T11:03:26;7.30;;;4.82;;
41572;SDS011;27286;47.870;19.006;2023-03-01T11:06:03;4.68;;;4.25;;
41572;SDS011;27286;47.870;19.006;2023-03-01T11:08:38;4.97;;;4.30;;
41572;SDS011;27286;47.870;19.006;2023-03-01T11:11:26;5.55;;;4.13;;
41572;SDS011;27286;47.870;19.006;2023-03-01T11:18:56;7.30;;;4.38;;
41572;SDS011;27286;47.870;19.006;2023-03-01T11:21:23;5.40;;;3.58;;
41572;SDS011;27286;47.870;19.006;2023-03-01T11:23:50;5.40;;;3.45;;
41572;SDS011;27286;47.870;19.006;2023-03-01T11:26:16;5.93;;;4.03;;
41572;SDS011;27286;47.870;19.006;2023-03-01T11:28:42;6.25;;;4.93;;
41572;SDS011;27286;47.870;19.006;2023-03-01T11:31:13;6.65;;;4.57;;
41572;SDS011;27286;47.870;19.006;2023-03-01T11:33:46;5.75;;;3.72;;
41572;SDS011;27286;47.870;19.006;2023-03-01T11:39:17;5.53;;;4.32;;
41572;SDS011;27286;47.870;19.006;2023-03-01T11:41:52;12.95;;;4.07;;
41572;SDS011;27286;47.870;19.006;2023-03-01T11:44:46;7.18;;;3.20;;
41572;SDS011;27286;47.870;19.006;2023-03-01T12:21:57;5.95;;;3.80;;
41572;SDS011;27286;47.870;19.006;2023-03-01T12:27:15;6.70;;;3.88;;
41572;SDS011;27286;47.870;19.006;2023-03-01T12:33:01;5.75;;;3.92;;
41572;SDS011;27286;47.870;19.006;2023-03-01T12:37:55;7.40;;;3.60;;
41572;SDS011;27286;47.870;19.006;2023-03-01T12:43:10;4.20;;;3.42;;
41572;SDS011;27286;47.870;19.006;2023-03-01T12:51:32;4.80;;;2.55;;
41572;SDS011;27286;47.870;19.006;2023-03-01T12:54:01;4.10;;;3.03;;
41572;SDS011;27286;47.870;19.006;2023-03-01T12:56:36;3.58;;;2.72;;
41572;SDS011;27286;47.870;19.006;2023-03-01T12:59:18;5.13;;;2.55;;
41572;SDS011;27286;47.870;19.006;2023-03-01T13:07:52;5.18;;;1.42;;
41572;SDS011;27286;47.870;19.006;2023-03-01T13:10:29;6.47;;;2.75;;
41572;SDS011;27286;47.870;19.006;2023-03-01T13:13:03;4.05;;;2.00;;
41572;SDS011;27286;47.870;19.006;2023-03-01T13:15:36;3.38;;;1.20;;
41572;SDS011;27286;47.870;19.006;2023-03-01T13:38:57;3.80;;;1.60;;
41572;SDS011;27286;47.870;19.006;2023-03-01T13:46:49;5.17;;;1.57;;
41572;SDS011;27286;47.870;19.006;2023-03-01T13:49:25;2.25;;;0.60;;
41572;SDS011;27286;47.870;19.006;2023-03-01T13:51:53;7.68;;;0.70;;
41572;SDS011;27286;47.870;19.006;2023-03-01T13:54:28;5.07;;;1.05;;
41572;SDS011;27286;47.870;19.006;2023-03-01T13:56:56;8.25;;;1.00;;
41572;SDS011;27286;47.870;19.006;2023-03-01T13:59:23;4.47;;;0.77;;
41572;SDS011;27286;47.870;19.006;2023-03-01T14:01:58;25.58;;;10.85;;
41572;SDS011;27286;47.870;19.006;2023-03-01T14:04:29;3.72;;;1.38;;
41572;SDS011;27286;47.870;19.006;2023-03-01T14:07:12;4.88;;;1.00;;
41572;SDS011;27286;47.870;19.006;2023-03-01T14:09:41;3.60;;;0.70;;
41572;SDS011;27286;47.870;19.006;2023-03-01T14:18:01;10.32;;;3.08;;
41572;SDS011;27286;47.870;19.006;2023-03-01T14:20:37;7.63;;;1.70;;
41572;SDS011;27286;47.870;19.006;2023-03-01T14:23:10;6.72;;;1.23;;
41572;SDS011;27286;47.870;19.006;2023-03-01T14:25:37;2.08;;;0.75;;
41572;SDS011;27286;47.870;19.006;2023-03-01T14:28:17;2.65;;;0.88;;
41572;SDS011;27286;47.870;19.006;2023-03-01T14:30:50;5.50;;;0.88;;
41572;SDS011;27286;47.870;19.006;2023-03-01T14:33:18;4.00;;;0.90;;
41572;SDS011;27286;47.870;19.006;2023-03-01T14:38:21;2.70;;;0.70;;
41572;SDS011;27286;47.870;19.006;2023-03-01T14:40:48;6.28;;;0.90;;
41572;SDS011;27286;47.870;19.006;2023-03-01T14:43:20;4.07;;;0.77;;
41572;SDS011;27286;47.870;19.006;2023-03-01T14:45:49;3.58;;;0.90;;
41572;SDS011;27286;47.870;19.006;2023-03-01T14:48:15;3.45;;;0.88;;
41572;SDS011;27286;47.870;19.006;2023-03-01T14:50:42;4.50;;;1.00;;
41572;SDS011;27286;47.870;19.006;2023-03-01T14:53:23;2.28;;;0.60;;
41572;SDS011;27286;47.870;19.006;2023-03-01T14:55:55;4.43;;;1.05;;
41572;SDS011;27286;47.870;19.006;2023-03-01T14:58:25;4.82;;;0.90;;
41572;SDS011;27286;47.870;19.006;2023-03-01T15:00:53;3.63;;;0.77;;
41572;SDS011;27286;47.870;19.006;2023-03-01T15:03:38;6.10;;;0.90;;
41572;SDS011;27286;47.870;19.006;2023-03-01T15:06:08;3.03;;;0.85;;
41572;SDS011;27286;47.870;19.006;2023-03-01T15:08:37;3.70;;;1.00;;
41572;SDS011;27286;47.870;19.006;2023-03-01T15:13:39;6.03;;;1.05;;
41572;SDS011;27286;47.870;19.006;2023-03-01T15:18:32;3.53;;;1.13;;
41572;SDS011;27286;47.870;19.006;2023-03-01T15:21:13;5.00;;;1.30;;
41572;SDS011;27286;47.870;19.006;2023-03-01T15:23:42;3.80;;;0.90;;
41572;SDS011;27286;47.870;19.006;2023-03-01T15:29:15;5.20;;;1.30;;
41572;SDS011;27286;47.870;19.006;2023-03-01T15:31:42;4.43;;;1.42;;
41572;SDS011;27286;47.870;19.006;2023-03-01T15:34:21;2.85;;;1.15;;
41572;SDS011;27286;47.870;19.006;2023-03-01T15:36:52;5.18;;;1.40;;
41572;SDS011;27286;47.870;19.006;2023-03-01T15:42:10;4.68;;;1.05;;
41572;SDS011;27286;47.870;19.006;2023-03-01T15:44:38;4.22;;;1.20;;
41572;SDS011;27286;47.870;19.006;2023-03-01T15:47:23;4.32;;;0.90;;
41572;SDS011;27286;47.870;19.006;2023-03-01T15:49:51;4.82;;;1.20;;
41572;SDS011;27286;47.870;19.006;2023-03-01T15:55:01;4.70;;;1.23;;
41572;SDS011;27286;47.870;19.006;2023-03-01T15:57:29;4.80;;;1.00;;
41572;SDS011;27286;47.870;19.006;2023-03-01T15:59:54;6.75;;;1.00;;
41572;SDS011;27286;47.870;19.006;2023-03-01T16:02:21;6.00;;;1.10;;
41572;SDS011;27286;47.870;19.006;2023-03-01T16:04:48;4.55;;;1.10;;
41572;SDS011;27286;47.870;19.006;2023-03-01T16:07:16;3.67;;;0.95;;
41572;SDS011;27286;47.870;19.006;2023-03-01T16:09:42;4.07;;;1.08;;
41572;SDS011;27286;47.870;19.006;2023-03-01T16:12:15;4.88;;;1.92;;
41572;SDS011;27286;47.870;19.006;2023-03-01T16:14:41;6.55;;;0.82;;
41572;SDS011;27286;47.870;19.006;2023-03-01T16:17:07;4.03;;;0.90;;
41572;SDS011;27286;47.870;19.006;2023-03-01T16:19:35;10.43;;;1.23;;
41572;SDS011;27286;47.870;19.006;2023-03-01T16:22:01;11.45;;;1.55;;
41572;SDS011;27286;47.870;19.006;2023-03-01T16:24:26;10.90;;;1.00;;
41572;SDS011;27286;47.870;19.006;2023-03-01T16:26:52;6.45;;;0.90;;
41572;SDS011;27286;47.870;19.006;2023-03-01T16:29:17;4.97;;;1.58;;
41572;SDS011;27286;47.870;19.006;2023-03-01T16:31:42;19.20;;;1.25;;
41572;SDS011;27286;47.870;19.006;2023-03-01T16:34:08;18.15;;;1.27;;
41572;SDS011;27286;47.870;19.006;2023-03-01T16:36:34;13.13;;;2.15;;
41572;SDS011;27286;47.870;19.006;2023-03-01T16:38:59;9.70;;;1.27;;
41572;SDS011;27286;47.870;19.006;2023-03-01T16:41:26;11.95;;;1.38;;
41572;SDS011;27286;47.870;19.006;2023-03-01T16:43:52;5.25;;;0.93;;
41572;SDS011;27286;47.870;19.006;2023-03-01T16:46:22;6.38;;;0.93;;
41572;SDS011;27286;47.870;19.006;2023-03-01T16:48:50;4.38;;;0.80;;
41572;SDS011;27286;47.870;19.006;2023-03-01T16:51:17;3.95;;;1.17;;
41572;SDS011;27286;47.870;19.006;2023-03-01T16:53:43;5.05;;;0.82;;
41572;SDS011;27286;47.870;19.006;2023-03-01T16:56:10;6.93;;;1.65;;
41572;SDS011;27286;47.870;19.006;2023-03-01T16:58:37;3.65;;;1.05;;
41572;SDS011;27286;47.870;19.006;2023-03-01T17:01:07;4.22;;;0.90;;
41572;SDS011;27286;47.870;19.006;2023-03-01T17:03:41;2.92;;;1.08;;
41572;SDS011;27286;47.870;19.006;2023-03-01T17:06:09;41.38;;;4.15;;
41572;SDS011;27286;47.870;19.006;2023-03-01T17:08:37;12.18;;;2.10;;
41572;SDS011;27286;47.870;19.006;2023-03-01T17:11:04;36.92;;;15.45;;